Time;durP1;ratioP1;P1;durP2;ratioP2;P2;SDS_P1;SDS_P2;PMS_P1;PMS_P2;Temp;Humidity;BMP_temperature;BMP_pressure;BME280_temperature;BME280_humidity;BME280_pressure;Samples;Min_cycle;Max_cycle;Signal;HPM_P1;HPM_P2
2024/01/23 00:02:09;;;;;;;3.17;0.90;;;23.30;99.90;;;;;;5059219;28;20224;-79
2024/01/23 00:04:40;;;;;;;5.47;1.15;;;23.40;99.90;;;;;;5050501;28;20217;-78
2024/01/23 00:07:12;;;;;;;3.95;1.20;;;23.50;99.90;;;;;;5050580;28;20236;-79
2024/01/23 00:09:45;;;;;;;3.55;1.05;;;23.70;99.90;;;;;;5068261;28;20264;-78
2024/01/23 00:12:16;;;;;;;7.13;1.15;;;23.60;99.90;;;;;;5080639;28;20363;-80
2024/01/23 00:14:47;;;;;;;4.85;1.20;;;23.60;99.90;;;;;;5066096;28;20583;-78
2024/01/23 00:17:19;;;;;;;5.40;1.17;;;23.70;99.90;;;;;;5054954;28;20216;-79
2024/01/23 00:19:50;;;;;;;5.32;1.17;;;23.60;99.90;;;;;;5078408;28;20620;-79
2024/01/23 00:22:21;;;;;;;4.72;1.10;;;23.50;99.90;;;;;;5090223;28;20309;-78
2024/01/23 00:24:54;;;;;;;3.33;1.02;;;23.60;99.90;;;;;;5084644;28;20222;-79
2024/01/23 00:27:25;;;;;;;5.80;1.08;;;23.60;99.90;;;;;;5094435;28;20875;-79
2024/01/23 00:29:56;;;;;;;6.47;1.30;;;23.60;99.90;;;;;;5093031;28;20262;-78
2024/01/23 00:32:30;;;;;;;7.25;1.20;;;23.60;99.90;;;;;;5087318;28;20211;-78
2024/01/23 00:35:01;;;;;;;4.70;1.25;;;23.70;99.90;;;;;;5081877;28;20215;-79
2024/01/23 00:37:33;;;;;;;4.38;0.98;;;23.80;99.90;;;;;;5087167;28;20717;-80
2024/01/23 00:40:07;;;;;;;4.75;1.10;;;24.00;99.90;;;;;;5086947;28;20261;-79
2024/01/23 00:42:38;;;;;;;3.65;1.10;;;24.10;99.90;;;;;;5070676;28;20644;-80
2024/01/23 00:45:10;;;;;;;2.88;0.90;;;24.20;99.90;;;;;;5049540;28;20303;-80
2024/01/23 00:47:41;;;;;;;4.00;0.80;;;24.20;99.90;;;;;;5053224;28;20272;-80
2024/01/23 00:50:13;;;;;;;2.53;0.77;;;24.10;99.90;;;;;;5082236;28;20211;-79
2024/01/23 00:52:44;;;;;;;4.72;1.30;;;24.00;99.90;;;;;;5050878;28;20221;-79
2024/01/23 00:55:17;;;;;;;2.53;0.88;;;23.90;99.90;;;;;;5051078;28;20220;-78
2024/01/23 00:57:48;;;;;;;3.50;0.90;;;24.00;99.90;;;;;;5050328;28;20216;-78
2024/01/23 01:00:20;;;;;;;4.97;1.00;;;24.00;99.90;;;;;;5063146;28;20220;-78
2024/01/23 01:02:51;;;;;;;3.75;1.00;;;24.10;99.90;;;;;;5069980;28;20708;-78
2024/01/23 01:05:22;;;;;;;5.03;1.30;;;24.10;99.90;;;;;;5069873;28;20223;-78
2024/01/23 01:07:54;;;;;;;3.50;0.88;;;24.30;99.90;;;;;;5071139;28;20237;-78
2024/01/23 01:10:27;;;;;;;2.70;0.82;;;24.40;99.90;;;;;;5082891;28;20219;-79
2024/01/23 01:12:58;;;;;;;4.53;1.10;;;24.50;99.90;;;;;;5070452;28;20567;-79
2024/01/23 01:15:30;;;;;;;4.85;0.80;;;24.50;99.90;;;;;;5077389;28;20212;-79
2024/01/23 01:18:02;;;;;;;2.97;0.80;;;24.50;99.90;;;;;;5050985;28;20252;-77
2024/01/23 01:20:33;;;;;;;2.65;0.80;;;24.40;99.90;;;;;;5090834;28;20632;-77
2024/01/23 01:23:04;;;;;;;3.90;0.98;;;24.50;99.90;;;;;;5090802;28;20219;-77
2024/01/23 01:25:37;;;;;;;2.78;0.70;;;24.70;99.90;;;;;;5057058;28;20218;-78
2024/01/23 01:28:09;;;;;;;4.35;1.00;;;24.80;99.90;;;;;;5051946;28;20224;-77
2024/01/23 01:30:40;;;;;;;4.82;1.17;;;24.90;99.90;;;;;;5049341;28;20223;-78
2024/01/23 01:33:11;;;;;;;2.85;0.93;;;24.90;99.90;;;;;;5050040;28;20256;-77
2024/01/23 01:35:42;;;;;;;2.25;0.65;;;25.00;99.90;;;;;;5054247;28;20236;-77
2024/01/23 01:38:14;;;;;;;1.88;0.60;;;25.10;99.90;;;;;;5057501;28;20644;-77
2024/01/23 01:40:47;;;;;;;2.25;0.73;;;25.10;99.90;;;;;;5073448;28;20222;-77
2024/01/23 01:43:28;;;;;;;2.65;0.75;;;25.10;99.90;;;;;;5093230;28;20725;-78
2024/01/23 01:46:18;;;;;;;4.53;1.00;;;25.10;99.90;;;;;;5090585;28;20215;-77
2024/01/23 01:48:50;;;;;;;2.15;0.80;;;25.10;99.90;;;;;;5058015;28;20876;-78
2024/01/23 01:51:24;;;;;;;4.07;1.10;;;25.10;99.90;;;;;;5071241;28;20271;-77
2024/01/23 01:53:55;;;;;;;2.88;0.77;;;25.10;99.90;;;;;;5093277;28;20195;-77
2024/01/23 01:56:29;;;;;;;2.70;0.93;;;25.20;99.90;;;;;;5082048;28;20196;-78
2024/01/23 01:59:01;;;;;;;4.30;0.88;;;25.20;99.90;;;;;;5056159;28;20235;-77
2024/01/23 02:01:31;;;;;;;8.10;1.30;;;25.30;99.90;;;;;;5060548;28;20219;-77
2024/01/23 02:04:02;;;;;;;3.30;0.88;;;25.30;99.90;;;;;;5073140;28;20299;-78
2024/01/23 02:06:36;;;;;;;3.05;1.00;;;25.30;99.90;;;;;;5061531;28;20213;-77
2024/01/23 02:09:08;;;;;;;4.93;0.88;;;25.50;99.90;;;;;;5052961;28;20200;-78
2024/01/23 02:11:55;;;;;;;3.08;1.35;;;25.60;99.90;;;;;;5052715;28;20599;-77
2024/01/23 02:14:26;;;;;;;2.92;0.77;;;25.70;99.90;;;;;;5063512;28;20199;-78
2024/01/23 02:16:57;;;;;;;1.75;0.80;;;25.90;99.90;;;;;;5073167;28;20207;-77
2024/01/23 02:19:29;;;;;;;1.75;0.68;;;26.00;99.90;;;;;;5074415;28;20236;-78
2024/01/23 02:22:00;;;;;;;3.97;0.85;;;26.10;99.90;;;;;;5093000;28;20199;-77
2024/01/23 02:24:34;;;;;;;3.53;1.00;;;26.10;99.90;;;;;;5076678;28;20205;-79
2024/01/23 02:27:05;;;;;;;2.60;0.65;;;26.20;99.90;;;;;;5056462;28;20193;-78
2024/01/23 02:29:37;;;;;;;4.13;0.90;;;26.10;99.90;;;;;;5052885;28;20288;-79
2024/01/23 02:32:08;;;;;;;2.75;0.85;;;26.10;99.90;;;;;;5054963;28;20249;-78
2024/01/23 02:34:39;;;;;;;3.85;1.20;;;26.00;99.90;;;;;;5084293;28;20199;-78
2024/01/23 02:37:11;;;;;;;3.28;1.08;;;26.00;99.90;;;;;;5092242;28;20191;-78
2024/01/23 02:39:44;;;;;;;2.45;0.98;;;25.90;99.90;;;;;;5091825;28;20222;-78
2024/01/23 02:42:15;;;;;;;3.45;0.80;;;25.70;99.90;;;;;;5063322;28;20265;-78
2024/01/23 02:44:47;;;;;;;2.95;0.98;;;25.60;99.90;;;;;;5084632;28;20195;-78
2024/01/23 02:47:18;;;;;;;4.45;1.20;;;25.60;99.90;;;;;;5070090;28;20233;-78
2024/01/23 02:49:50;;;;;;;4.72;1.05;;;25.60;99.90;;;;;;5083030;28;20234;-78
2024/01/23 02:52:22;;;;;;;3.65;0.90;;;25.50;99.90;;;;;;5093590;28;20215;-78
2024/01/23 02:54:55;;;;;;;3.10;0.50;;;25.50;99.90;;;;;;5088674;28;20222;-78
2024/01/23 02:57:26;;;;;;;2.67;0.80;;;25.60;99.90;;;;;;5060669;28;20307;-77
2024/01/23 02:59:58;;;;;;;1.80;0.60;;;25.70;99.90;;;;;;5050840;28;20353;-78
2024/01/23 03:02:29;;;;;;;3.65;0.80;;;25.70;99.90;;;;;;5061289;28;20215;-77
2024/01/23 03:05:03;;;;;;;2.13;0.75;;;25.70;99.90;;;;;;5071473;28;20220;-77
2024/01/23 03:07:34;;;;;;;4.28;0.90;;;25.70;99.90;;;;;;5064564;28;20223;-79
2024/01/23 03:10:08;;;;;;;4.03;1.02;;;25.80;99.90;;;;;;5068535;28;20672;-77
2024/01/23 03:12:39;;;;;;;3.20;0.90;;;25.80;99.90;;;;;;5092788;28;20237;-78
2024/01/23 03:15:10;;;;;;;3.40;0.77;;;25.70;99.90;;;;;;5081448;28;20208;-78
2024/01/23 03:17:42;;;;;;;2.92;1.00;;;25.60;99.90;;;;;;5074262;28;20650;-79
2024/01/23 03:20:13;;;;;;;2.65;0.70;;;25.50;99.90;;;;;;5078584;28;20227;-79
2024/01/23 03:22:45;;;;;;;5.85;1.00;;;25.50;99.90;;;;;;5087379;28;20239;-79
2024/01/23 03:25:19;;;;;;;3.70;0.85;;;25.50;99.90;;;;;;5092351;28;20514;-78
2024/01/23 03:27:50;;;;;;;4.80;1.05;;;25.50;99.90;;;;;;5057913;28;20636;-79
2024/01/23 03:30:36;;;;;;;4.55;0.95;;;25.40;99.90;;;;;;5051840;28;20266;-77
2024/01/23 03:33:07;;;;;;;3.38;0.93;;;25.30;99.90;;;;;;5051097;28;20193;-77
2024/01/23 03:35:38;;;;;;;4.40;0.90;;;25.40;99.90;;;;;;5052034;28;20201;-78
2024/01/23 03:38:09;;;;;;;2.42;0.90;;;25.30;99.90;;;;;;5051464;28;20216;-78
2024/01/23 03:40:42;;;;;;;4.68;1.02;;;25.30;99.90;;;;;;5052171;28;20235;-78
2024/01/23 03:43:13;;;;;;;3.80;1.00;;;25.40;99.90;;;;;;5051446;28;20197;-77
2024/01/23 03:45:45;;;;;;;4.15;1.00;;;25.30;99.90;;;;;;5050990;28;20205;-78
2024/01/23 03:48:18;;;;;;;3.17;0.88;;;25.50;99.90;;;;;;5050711;28;20697;-78
2024/01/23 03:50:49;;;;;;;2.35;0.90;;;25.50;99.90;;;;;;5051865;28;20315;-79
2024/01/23 03:53:20;;;;;;;4.75;1.13;;;25.60;99.90;;;;;;5051358;28;20200;-79
2024/01/23 03:55:53;;;;;;;2.35;0.68;;;25.60;99.90;;;;;;5069444;28;20200;-79
2024/01/23 03:58:24;;;;;;;4.78;0.90;;;25.80;99.90;;;;;;5070209;28;20689;-79
2024/01/23 04:00:57;;;;;;;3.88;0.85;;;25.80;99.90;;;;;;5070967;28;20654;-77
2024/01/23 04:03:28;;;;;;;4.72;0.93;;;25.70;99.90;;;;;;5071206;28;20200;-78
2024/01/23 04:06:00;;;;;;;3.58;1.00;;;25.60;99.90;;;;;;5066009;28;20201;-78
2024/01/23 04:08:31;;;;;;;2.95;0.70;;;25.60;99.90;;;;;;5051227;28;20851;-77
2024/01/23 04:11:04;;;;;;;3.50;0.75;;;25.50;99.90;;;;;;5051880;28;20184;-78
2024/01/23 04:13:35;;;;;;;2.88;0.70;;;25.60;99.90;;;;;;5051393;28;20219;-78
2024/01/23 04:16:08;;;;;;;4.32;0.90;;;25.60;99.90;;;;;;5051138;28;20192;-79
2024/01/23 04:18:54;;;;;;;3.10;0.70;;;25.50;99.90;;;;;;5050609;28;20221;-78
2024/01/23 04:21:26;;;;;;;3.45;0.82;;;25.50;99.90;;;;;;5049628;28;20247;-78
2024/01/23 04:23:57;;;;;;;4.05;0.80;;;25.50;99.90;;;;;;5061885;28;20230;-78
2024/01/23 04:26:30;;;;;;;2.50;0.70;;;25.70;99.90;;;;;;5052924;28;20222;-78
2024/01/23 04:29:01;;;;;;;3.88;0.95;;;25.80;99.90;;;;;;5050717;28;20230;-77
2024/01/23 04:31:32;;;;;;;4.93;1.00;;;26.10;99.90;;;;;;5049977;28;20549;-77
2024/01/23 04:34:03;;;;;;;5.10;0.77;;;26.20;99.90;;;;;;5050155;28;20296;-77
2024/01/23 04:36:34;;;;;;;6.25;0.82;;;26.20;99.90;;;;;;5053237;28;20231;-76
2024/01/23 04:39:06;;;;;;;3.83;1.05;;;26.20;99.90;;;;;;5090926;28;20225;-77
2024/01/23 04:41:39;;;;;;;3.65;0.80;;;26.20;99.90;;;;;;5055159;28;20338;-78
2024/01/23 04:44:10;;;;;;;3.13;0.68;;;26.30;99.90;;;;;;5053459;28;20212;-77
2024/01/23 04:46:41;;;;;;;2.60;0.63;;;26.40;99.90;;;;;;5063369;28;20214;-79
2024/01/23 04:49:12;;;;;;;2.50;0.60;;;26.50;99.90;;;;;;5058579;28;20584;-77
2024/01/23 04:51:43;;;;;;;3.63;0.77;;;26.60;99.90;;;;;;5110641;28;20247;-77
2024/01/23 04:54:13;;;;;;;3.65;0.98;;;26.70;99.90;;;;;;5090073;28;20226;-77
2024/01/23 04:56:47;;;;;;;4.85;0.70;;;26.70;99.90;;;;;;5068655;28;20199;-76
2024/01/23 04:59:18;;;;;;;2.63;0.68;;;26.80;99.90;;;;;;5050223;28;20224;-76
2024/01/23 05:01:49;;;;;;;2.17;0.63;;;26.80;99.90;;;;;;5050062;28;20196;-76
2024/01/23 05:04:20;;;;;;;6.63;1.00;;;26.70;99.90;;;;;;5058780;28;20191;-76
2024/01/23 05:06:51;;;;;;;3.70;0.63;;;26.50;99.90;;;;;;5090555;28;20286;-77
2024/01/23 05:09:22;;;;;;;2.67;0.60;;;26.50;99.90;;;;;;5092082;28;20195;-76
2024/01/23 05:11:55;;;;;;;2.88;0.73;;;26.70;99.90;;;;;;5074798;28;20200;-76
2024/01/23 05:14:27;;;;;;;5.43;1.30;;;26.80;99.90;;;;;;5063652;28;20193;-76
2024/01/23 05:16:58;;;;;;;2.22;0.70;;;26.80;99.90;;;;;;5094134;28;20199;-76
2024/01/23 05:19:29;;;;;;;1.35;0.70;;;26.80;99.90;;;;;;5094050;28;20219;-76
2024/01/23 05:22:00;;;;;;;3.13;0.77;;;26.60;99.90;;;;;;5094095;28;20203;-76
2024/01/23 05:24:31;;;;;;;2.25;0.68;;;26.50;99.90;;;;;;5077380;28;20195;-77
2024/01/23 05:27:04;;;;;;;3.92;0.80;;;26.50;99.90;;;;;;5094371;28;20199;-77
2024/01/23 05:29:35;;;;;;;1.15;0.65;;;26.60;99.90;;;;;;5076278;28;20590;-77
2024/01/23 05:32:07;;;;;;;4.15;0.80;;;26.50;99.90;;;;;;5061304;28;20201;-77
2024/01/23 05:34:38;;;;;;;3.38;0.60;;;26.40;99.90;;;;;;5054716;28;20255;-77
2024/01/23 05:37:09;;;;;;;2.60;0.75;;;26.20;99.90;;;;;;5054381;28;20181;-77
2024/01/23 05:39:40;;;;;;;2.92;0.70;;;26.10;99.90;;;;;;5054199;28;20236;-78
2024/01/23 05:42:14;;;;;;;2.78;0.70;;;26.20;99.90;;;;;;5070993;28;20210;-77
2024/01/23 05:44:45;;;;;;;4.85;0.73;;;26.40;99.90;;;;;;5085028;28;20183;-77
2024/01/23 05:47:16;;;;;;;2.50;0.80;;;26.60;99.90;;;;;;5081579;28;20271;-77
2024/01/23 05:49:47;;;;;;;3.05;0.70;;;26.60;99.90;;;;;;5076780;28;20200;-76
2024/01/23 05:52:18;;;;;;;3.58;0.70;;;26.80;99.90;;;;;;5072166;28;20291;-76
2024/01/23 05:54:49;;;;;;;1.60;0.52;;;27.00;99.90;;;;;;5073225;28;20212;-75
2024/01/23 05:57:22;;;;;;;2.45;0.63;;;27.00;99.90;;;;;;5072669;28;20199;-76
2024/01/23 05:59:53;;;;;;;3.78;0.70;;;26.80;99.90;;;;;;5087571;28;20306;-75
2024/01/23 06:02:24;;;;;;;5.05;0.95;;;26.70;99.90;;;;;;5077872;28;20195;-75
2024/01/23 06:04:56;;;;;;;3.47;0.80;;;26.90;99.90;;;;;;5103009;28;20196;-76
2024/01/23 06:07:27;;;;;;;4.35;0.90;;;27.10;99.90;;;;;;5054202;28;20225;-76
2024/01/23 06:09:58;;;;;;;4.65;0.80;;;27.40;99.90;;;;;;5078991;28;20195;-77
2024/01/23 06:12:31;;;;;;;2.03;0.82;;;27.60;99.90;;;;;;5090376;28;20313;-76
2024/01/23 06:15:02;;;;;;;3.75;0.75;;;27.70;99.90;;;;;;5093053;28;20578;-76
2024/01/23 06:17:33;;;;;;;5.03;0.88;;;28.00;99.90;;;;;;5093621;28;20221;-76
2024/01/23 06:20:05;;;;;;;4.50;0.80;;;28.20;99.90;;;;;;5055713;28;20220;-76
2024/01/23 06:22:36;;;;;;;4.75;0.90;;;28.50;99.90;;;;;;5080083;28;20219;-76
2024/01/23 06:25:09;;;;;;;3.13;0.75;;;28.60;99.90;;;;;;5071204;28;20202;-77
2024/01/23 06:27:42;;;;;;;6.07;1.10;;;28.70;99.90;;;;;;5072627;28;20570;-77
2024/01/23 06:30:14;;;;;;;4.55;1.05;;;28.30;99.90;;;;;;5070834;28;20193;-76
2024/01/23 06:32:45;;;;;;;5.40;1.00;;;27.80;99.90;;;;;;5090090;28;20210;-77
2024/01/23 06:35:16;;;;;;;3.42;0.88;;;28.20;99.90;;;;;;5079854;28;20228;-76
2024/01/23 06:37:47;;;;;;;3.40;1.17;;;28.70;99.90;;;;;;5084870;28;20203;-77
2024/01/23 06:40:19;;;;;;;4.80;1.00;;;29.00;99.90;;;;;;5066265;28;20226;-78
2024/01/23 06:42:52;;;;;;;6.50;1.02;;;29.20;99.90;;;;;;5090249;28;20203;-78
2024/01/23 06:45:23;;;;;;;3.97;0.80;;;29.30;99.90;;;;;;5078347;28;20204;-77
2024/01/23 06:47:54;;;;;;;2.80;0.80;;;29.50;99.90;;;;;;5073510;28;20270;-77
2024/01/23 06:50:26;;;;;;;5.65;1.00;;;29.70;99.90;;;;;;5073957;28;20200;-74
2024/01/23 06:52:57;;;;;;;5.30;1.08;;;29.90;99.90;;;;;;5075506;28;20216;-76
2024/01/23 06:55:28;;;;;;;3.22;0.80;;;30.10;99.90;;;;;;5072367;28;20216;-76
2024/01/23 06:58:01;;;;;;;5.65;1.10;;;30.30;99.90;;;;;;5059508;28;20197;-75
2024/01/23 07:00:33;;;;;;;5.13;0.80;;;30.40;99.20;;;;;;5069479;28;20224;-75
2024/01/23 07:03:04;;;;;;;7.97;1.02;;;30.90;98.60;;;;;;5089133;28;20205;-76
2024/01/23 07:05:35;;;;;;;3.22;1.23;;;31.20;96.50;;;;;;5092278;28;20205;-76
2024/01/23 07:08:07;;;;;;;6.25;1.23;;;31.60;95.30;;;;;;5082747;28;20223;-77
2024/01/23 07:10:38;;;;;;;2.45;1.00;;;31.60;94.00;;;;;;5055229;28;20202;-76
2024/01/23 07:13:11;;;;;;;6.07;1.20;;;32.00;93.60;;;;;;5081904;28;20203;-76
2024/01/23 07:15:42;;;;;;;2.17;0.82;;;32.20;91.30;;;;;;5069683;28;20196;-76
2024/01/23 07:18:13;;;;;;;3.17;0.95;;;32.30;91.00;;;;;;5052172;28;20185;-76
2024/01/23 07:20:44;;;;;;;5.75;1.20;;;32.70;90.20;;;;;;5050355;28;20229;-75
2024/01/23 07:23:15;;;;;;;3.38;0.95;;;32.50;89.10;;;;;;5077251;28;20649;-75
2024/01/23 07:25:46;;;;;;;3.90;1.10;;;32.30;89.90;;;;;;5091960;28;20205;-75
2024/01/23 07:28:19;;;;;;;3.50;1.02;;;32.60;87.50;;;;;;5086728;28;20204;-75
2024/01/23 07:30:51;;;;;;;3.47;0.77;;;33.00;85.90;;;;;;5071138;28;20195;-76
2024/01/23 07:33:21;;;;;;;4.55;0.90;;;33.30;83.60;;;;;;5060486;28;20206;-76
2024/01/23 07:35:52;;;;;;;2.92;0.88;;;33.20;82.30;;;;;;5071149;28;20206;-76
2024/01/23 07:38:23;;;;;;;4.20;0.77;;;33.20;81.40;;;;;;5051710;28;20200;-76
2024/01/23 07:40:54;;;;;;;4.00;0.90;;;33.20;79.50;;;;;;5077355;28;20245;-77
2024/01/23 07:43:29;;;;;;;3.95;0.85;;;33.10;79.30;;;;;;5063003;28;20204;-76
2024/01/23 07:46:01;;;;;;;2.50;0.85;;;33.00;79.00;;;;;;5050883;28;20210;-76
2024/01/23 07:48:32;;;;;;;5.28;0.88;;;32.80;77.40;;;;;;5051937;28;20207;-76
2024/01/23 07:51:04;;;;;;;4.40;1.00;;;32.60;77.10;;;;;;5052491;28;20188;-77
2024/01/23 07:53:34;;;;;;;3.63;0.80;;;32.30;78.40;;;;;;5052369;28;20193;-76
2024/01/23 07:56:05;;;;;;;2.22;0.70;;;32.40;78.70;;;;;;5071291;28;20192;-76
2024/01/23 07:58:38;;;;;;;4.15;1.00;;;32.20;79.80;;;;;;5071279;28;20681;-76
2024/01/23 08:01:09;;;;;;;5.05;0.95;;;32.30;81.10;;;;;;5060658;28;20326;-76
2024/01/23 08:03:40;;;;;;;2.90;0.80;;;32.40;80.40;;;;;;5071144;28;20283;-76
2024/01/23 08:06:11;;;;;;;3.90;1.08;;;32.10;81.30;;;;;;5054237;28;20210;-77
2024/01/23 08:08:44;;;;;;;2.67;0.80;;;31.80;79.80;;;;;;5056825;28;20241;-77
2024/01/23 08:11:15;;;;;;;6.07;1.20;;;31.20;82.20;;;;;;5064568;28;20200;-77
2024/01/23 08:13:51;;;;;;;4.47;1.00;;;30.80;83.30;;;;;;5060344;28;20202;-76
2024/01/23 08:16:22;;;;;;;4.70;0.90;;;30.00;85.10;;;;;;5070944;28;20257;-77
2024/01/23 08:18:52;;;;;;;4.13;1.15;;;29.20;87.20;;;;;;5069378;28;20287;-76
2024/01/23 08:21:24;;;;;;;2.38;0.90;;;28.70;90.30;;;;;;5059711;28;20230;-77
2024/01/23 08:23:54;;;;;;;4.15;1.08;;;28.40;91.90;;;;;;5091052;28;20191;-76
2024/01/23 08:26:28;;;;;;;7.15;1.30;;;27.90;93.30;;;;;;5072748;28;20195;-78
2024/01/23 08:29:01;;;;;;;6.07;1.33;;;27.60;95.50;;;;;;5064242;28;20196;-77
2024/01/23 08:31:32;;;;;;;3.67;1.08;;;27.40;96.60;;;;;;5066211;28;20203;-77
2024/01/23 08:34:02;;;;;;;5.20;1.00;;;27.10;97.60;;;;;;5070332;28;20204;-77
2024/01/23 08:36:33;;;;;;;3.78;1.20;;;26.90;98.40;;;;;;5059293;28;20192;-77
2024/01/23 08:39:04;;;;;;;5.85;1.30;;;26.70;99.10;;;;;;5054405;28;20199;-77
2024/01/23 08:41:35;;;;;;;3.75;1.00;;;26.60;99.90;;;;;;5068458;28;20220;-77
2024/01/23 08:44:09;;;;;;;4.28;1.08;;;26.40;99.90;;;;;;5070751;28;20283;-77
2024/01/23 08:46:40;;;;;;;4.25;1.02;;;26.30;99.90;;;;;;5076472;28;20646;-76
2024/01/23 08:49:11;;;;;;;4.85;1.00;;;26.20;99.90;;;;;;5091205;28;20568;-76
2024/01/23 08:51:41;;;;;;;5.07;1.15;;;26.10;99.90;;;;;;5095106;28;20631;-78
2024/01/23 08:54:13;;;;;;;3.03;1.10;;;25.90;99.90;;;;;;5087593;28;20216;-77
2024/01/23 08:56:44;;;;;;;4.60;1.05;;;25.80;99.90;;;;;;5073169;28;20232;-77
2024/01/23 08:59:17;;;;;;;5.45;1.20;;;25.80;99.90;;;;;;5074455;28;20654;-78
2024/01/23 09:01:48;;;;;;;2.30;1.00;;;25.70;99.90;;;;;;5056152;28;20331;-78
2024/01/23 09:04:19;;;;;;;5.38;1.08;;;25.60;99.90;;;;;;5056668;28;20218;-77
2024/01/23 09:06:50;;;;;;;3.25;1.30;;;25.50;99.90;;;;;;5074364;28;20196;-78
2024/01/23 09:09:20;;;;;;;6.78;1.25;;;25.50;99.90;;;;;;5086534;28;20206;-79
2024/01/23 09:11:51;;;;;;;4.18;1.10;;;25.50;99.90;;;;;;5086186;28;20200;-77
2024/01/23 09:14:24;;;;;;;3.80;1.10;;;25.40;99.90;;;;;;5064109;28;20220;-77
2024/01/23 09:16:54;;;;;;;3.70;1.20;;;25.40;99.90;;;;;;5086677;28;20207;-75
2024/01/23 09:19:25;;;;;;;6.82;1.20;;;25.40;99.90;;;;;;5058585;28;20666;-76
2024/01/23 09:21:57;;;;;;;5.85;1.52;;;25.20;99.90;;;;;;5053861;28;20228;-76
2024/01/23 09:24:28;;;;;;;3.42;1.20;;;25.20;99.90;;;;;;5077705;28;20681;-77
2024/01/23 09:27:01;;;;;;;4.65;1.05;;;25.20;99.90;;;;;;5072194;28;20284;-76
2024/01/23 09:29:33;;;;;;;7.78;1.17;;;25.20;99.90;;;;;;5063496;28;20290;-77
2024/01/23 09:32:04;;;;;;;4.97;1.30;;;25.20;99.90;;;;;;5094068;28;20195;-76
2024/01/23 09:34:35;;;;;;;3.70;1.00;;;25.20;99.90;;;;;;5074123;28;20197;-76
2024/01/23 09:37:07;;;;;;;4.70;1.17;;;25.10;99.90;;;;;;5085207;28;20192;-77
2024/01/23 09:39:38;;;;;;;4.70;1.20;;;25.20;99.90;;;;;;5095402;28;20253;-77
2024/01/23 09:42:14;;;;;;;4.70;1.20;;;25.10;99.90;;;;;;5095362;28;20200;-77
2024/01/23 09:44:47;;;;;;;2.78;1.08;;;25.10;99.90;;;;;;5091616;28;20195;-77
2024/01/23 09:47:28;;;;;;;4.10;0.85;;;25.20;99.90;;;;;;5062054;28;20196;-78
2024/01/23 09:50:02;;;;;;;3.60;0.80;;;25.10;99.90;;;;;;5052945;28;20199;-76
2024/01/23 09:52:36;;;;;;;5.30;1.10;;;25.10;99.90;;;;;;5053899;28;20196;-77
2024/01/23 09:55:10;;;;;;;1.50;0.88;;;25.10;99.90;;;;;;5064918;28;20252;-76
2024/01/23 09:57:44;;;;;;;4.18;1.08;;;25.00;99.90;;;;;;5069938;28;20209;-76
2024/01/23 10:00:17;;;;;;;6.38;1.20;;;25.00;99.90;;;;;;5081099;28;20686;-77
2024/01/23 10:02:51;;;;;;;4.60;1.10;;;24.90;99.90;;;;;;5061831;28;20235;-77
2024/01/23 10:05:25;;;;;;;5.20;1.20;;;24.90;99.90;;;;;;5059832;28;20204;-77
2024/01/23 10:07:56;;;;;;;3.13;1.00;;;24.90;99.90;;;;;;5060259;28;20228;-77
2024/01/23 10:10:27;;;;;;;3.92;1.00;;;24.90;99.90;;;;;;5053233;28;20197;-77
2024/01/23 10:13:00;;;;;;;4.53;1.10;;;24.80;99.90;;;;;;5060896;28;20196;-76
2024/01/23 10:15:37;;;;;;;4.95;0.90;;;24.90;99.90;;;;;;5062383;28;20604;-78
2024/01/23 10:18:12;;;;;;;2.38;1.00;;;24.90;99.90;;;;;;5055448;28;20275;-78
2024/01/23 10:20:45;;;;;;;4.32;0.77;;;24.80;99.90;;;;;;5070938;28;20226;-77
2024/01/23 10:23:17;;;;;;;4.18;1.00;;;24.90;99.90;;;;;;5064186;28;20197;-77
2024/01/23 10:25:48;;;;;;;3.63;0.95;;;24.80;99.90;;;;;;5053218;28;20203;-78
2024/01/23 10:28:27;;;;;;;4.00;1.15;;;24.80;99.90;;;;;;5065170;28;20717;-77
2024/01/23 10:31:06;;;;;;;4.22;1.20;;;24.70;99.90;;;;;;5073468;28;20776;-78
2024/01/23 10:33:39;;;;;;;3.72;1.00;;;24.80;99.90;;;;;;5052691;28;20274;-78
2024/01/23 10:36:12;;;;;;;4.03;1.00;;;24.70;99.90;;;;;;5053428;28;20270;-78
2024/01/23 10:38:50;;;;;;;4.05;1.00;;;24.70;99.90;;;;;;5078004;28;20199;-77
2024/01/23 10:41:26;;;;;;;6.18;1.10;;;24.60;99.90;;;;;;5070784;28;20714;-76
2024/01/23 10:43:58;;;;;;;3.25;1.00;;;24.60;99.90;;;;;;5073424;28;20222;-77
2024/01/23 10:46:31;;;;;;;4.50;1.00;;;24.50;99.90;;;;;;5081744;28;20281;-76
2024/01/23 10:49:03;;;;;;;4.80;1.00;;;24.50;99.90;;;;;;5096075;28;20203;-78
2024/01/23 10:51:35;;;;;;;5.32;1.20;;;24.50;99.90;;;;;;5092263;28;20210;-78
2024/01/23 10:54:18;;;;;;;3.67;1.00;;;24.50;99.90;;;;;;5086416;28;20561;-77
2024/01/23 10:56:58;;;;;;;3.53;1.02;;;24.50;99.90;;;;;;5059162;28;20198;-75
2024/01/23 10:59:34;;;;;;;4.40;1.00;;;24.50;99.90;;;;;;5080663;28;20274;-78
2024/01/23 11:02:17;;;;;;;3.78;1.02;;;24.50;99.90;;;;;;5109150;28;20224;-77
2024/01/23 11:04:48;;;;;;;4.95;0.90;;;24.50;99.90;;;;;;5094523;28;20279;-79
2024/01/23 11:07:23;;;;;;;4.40;1.10;;;24.40;99.90;;;;;;5065043;28;20224;-79
2024/01/23 11:10:09;;;;;;;4.15;0.98;;;24.50;99.90;;;;;;5071242;28;20196;-78
2024/01/23 11:12:50;;;;;;;4.97;0.90;;;24.50;99.90;;;;;;5053874;28;20200;-79
2024/01/23 11:15:25;;;;;;;4.35;1.20;;;24.50;99.90;;;;;;5052018;28;20193;-79
2024/01/23 11:18:17;;;;;;;5.43;1.00;;;24.50;99.90;;;;;;5074012;28;20207;-79
2024/01/23 11:21:03;;;;;;;3.50;1.00;;;24.40;99.90;;;;;;5060158;28;20231;-77
2024/01/23 11:23:37;;;;;;;3.08;0.82;;;24.40;99.90;;;;;;5058823;28;20227;-78
2024/01/23 11:26:15;;;;;;;6.10;1.20;;;24.40;99.90;;;;;;5072528;28;20216;-77
2024/01/23 11:28:47;;;;;;;3.85;1.15;;;24.30;99.90;;;;;;5069142;28;20287;-77
2024/01/23 11:31:20;;;;;;;6.40;1.38;;;24.40;99.90;;;;;;5067993;28;20196;-78
2024/01/23 11:33:54;;;;;;;6.80;1.17;;;24.30;99.90;;;;;;5052370;28;20274;-78
2024/01/23 11:36:26;;;;;;;6.55;1.13;;;24.30;99.90;;;;;;5069313;28;20199;-78
2024/01/23 11:38:59;;;;;;;3.85;1.20;;;24.30;99.90;;;;;;5059246;28;20196;-78
2024/01/23 11:41:30;;;;;;;6.82;1.35;;;24.30;99.90;;;;;;5051235;28;20690;-79
2024/01/23 11:44:07;;;;;;;4.00;1.23;;;24.20;99.90;;;;;;5071506;28;20673;-78
2024/01/23 11:46:38;;;;;;;4.40;1.08;;;24.20;99.90;;;;;;5054535;28;20211;-77
2024/01/23 11:49:12;;;;;;;3.35;0.88;;;24.10;99.90;;;;;;5052072;28;20207;-78
2024/01/23 11:51:43;;;;;;;5.10;1.30;;;24.20;99.90;;;;;;5052557;28;20686;-78
2024/01/23 11:54:14;;;;;;;3.67;1.20;;;24.10;99.90;;;;;;5053591;28;20565;-79
2024/01/23 11:56:45;;;;;;;4.72;0.98;;;24.10;99.90;;;;;;5071282;28;20207;-79
2024/01/23 11:59:16;;;;;;;4.88;1.15;;;24.00;99.90;;;;;;5054798;28;20236;-78
2024/01/23 12:01:48;;;;;;;3.53;0.98;;;24.00;99.90;;;;;;5054469;28;20232;-78
2024/01/23 12:04:21;;;;;;;5.30;1.13;;;24.00;99.90;;;;;;5073373;28;20203;-77
2024/01/23 12:06:52;;;;;;;3.22;0.80;;;23.90;99.90;;;;;;5089523;28;20199;-77
2024/01/23 12:09:23;;;;;;;4.53;1.02;;;24.00;99.90;;;;;;5088367;28;20324;-78
2024/01/23 12:11:55;;;;;;;4.88;1.00;;;24.00;99.90;;;;;;5069618;28;20203;-79
2024/01/23 12:14:27;;;;;;;4.90;1.15;;;24.00;99.90;;;;;;5078449;28;20198;-79
2024/01/23 12:17:06;;;;;;;4.97;1.00;;;24.00;99.90;;;;;;5053388;28;20207;-79
2024/01/23 12:19:49;;;;;;;4.10;0.90;;;24.00;99.90;;;;;;5060692;28;20195;-78
2024/01/23 12:22:20;;;;;;;4.63;1.15;;;24.00;99.90;;;;;;5058337;28;20219;-78
2024/01/23 12:24:51;;;;;;;3.67;1.10;;;24.10;99.90;;;;;;5083601;28;20278;-79
2024/01/23 12:27:23;;;;;;;4.93;1.20;;;24.00;99.90;;;;;;5089146;28;20231;-78
2024/01/23 12:29:54;;;;;;;7.18;1.25;;;24.00;99.90;;;;;;5050945;28;20207;-78
2024/01/23 12:32:28;;;;;;;6.15;1.00;;;23.90;99.90;;;;;;5055164;28;20227;-78
2024/01/23 12:35:01;;;;;;;4.38;1.05;;;23.90;99.90;;;;;;5069792;28;20222;-78
2024/01/23 12:37:32;;;;;;;5.05;1.10;;;23.90;99.90;;;;;;5070425;28;20700;-78
2024/01/23 12:40:08;;;;;;;3.83;0.90;;;23.90;99.90;;;;;;5083863;28;20302;-78
2024/01/23 12:42:41;;;;;;;6.10;1.13;;;23.90;99.90;;;;;;5083584;28;20301;-78
2024/01/23 12:45:13;;;;;;;3.00;1.00;;;23.90;99.90;;;;;;5068313;28;20200;-78
2024/01/23 12:47:46;;;;;;;4.38;1.20;;;23.90;99.90;;;;;;5051337;28;20203;-78
2024/01/23 12:50:26;;;;;;;4.15;1.23;;;23.90;99.90;;;;;;5057367;28;20274;-78
2024/01/23 12:52:57;;;;;;;2.83;1.08;;;23.90;99.90;;;;;;5078540;28;20203;-78
2024/01/23 12:55:30;;;;;;;5.40;1.20;;;23.90;99.90;;;;;;5051039;28;20200;-78
2024/01/23 12:58:01;;;;;;;6.90;1.45;;;23.80;99.90;;;;;;5050527;28;20193;-77
2024/01/23 13:00:32;;;;;;;5.85;1.10;;;23.80;99.90;;;;;;5050721;28;20811;-78
2024/01/23 13:03:04;;;;;;;4.97;1.10;;;23.70;99.90;;;;;;5059296;28;20250;-77
2024/01/23 13:05:36;;;;;;;6.93;1.35;;;23.70;99.90;;;;;;5058573;28;20243;-77
2024/01/23 13:08:08;;;;;;;5.28;1.23;;;23.70;99.90;;;;;;5050808;28;20268;-77
2024/01/23 13:10:38;;;;;;;6.88;1.20;;;23.70;99.90;;;;;;5059941;28;20273;-78
2024/01/23 13:13:09;;;;;;;7.10;1.13;;;23.70;99.90;;;;;;5058804;28;20207;-77
2024/01/23 13:15:40;;;;;;;5.78;1.30;;;23.70;99.90;;;;;;5083290;28;20195;-77